FW6164 Weather Reports


Display with metric or nautical units.
time (UTC)temp
F
wind
direction
speed
MPH
gust
MPH
rain 1hr
in
rain 24hr
in
rain mn
in
humidity
%
barometer
mb
20210624061405 56 125 1.0 3.0 0.02 0.07 0.06 92 1014.9
20210624060904 56 290 1.0 3.0 0.02 0.07 0.06 92 1014.9
20210624060404 55 336 1.0 3.0 0.02 0.07 0.06 92 1014.9
20210624055904 55 213 0.0 1.0 0.03 0.07 0.06 92 1015.0
20210624055404 55 217 0.0 2.0 0.03 0.07 0.06 92 1015.0
20210624054904 55 333 1.0 3.0 0.02 0.06 0.05 92 1015.0
20210624054404 55 164 1.0 2.0 0.03 0.06 0.05 92 1015.1
20210624053904 54 167 1.0 5.0 0.03 0.06 0.05 92 1015.0
20210624053404 54 0 1.0 3.0 0.03 0.06 0.05 92 1015.1
20210624052904 54 173 1.0 3.0 0.03 0.06 0.05 92 1015.1
20210624052405 54 171 1.0 5.0 0.04 0.06 0.05 91 1015.2
20210624051904 55 172 2.0 7.0 0.03 0.05 0.04 91 1015.2
20210624051404 55 166 1.0 3.0 0.03 0.05 0.04 91 1015.2
20210624050904 55 256 1.0 3.0 0.03 0.05 0.04 91 1015.2
20210624050404 55 161 1.0 3.0 0.03 0.05 0.04 91 1015.3
20210624045904 55 176 1.0 3.0 0.02 0.04 0.03 91 1015.3
20210624045404 55 176 1.0 3.0 0.02 0.04 0.03 91 1015.4
20210624044904 55 197 2.0 5.0 0.02 0.04 0.03 91 1015.4
20210624044404 55 216 2.0 6.0 0.01 0.03 0.02 91 1015.5
20210624043904 54 162 2.0 7.0 0.01 0.03 0.02 91 1015.6
20210624043404 54 175 2.0 5.0 0.01 0.03 0.02 91 1015.7
20210624042904 54 244 1.0 5.0 0.01 0.03 0.02 91 1015.7
20210624042404 54 165 3.0 8.0 0.00 0.02 0.01 91 1015.8
20210624041904 54 159 2.0 6.0 0.00 0.02 0.01 91 1015.9
20210624041404 54 176 1.0 3.0 0.00 0.02 0.01 91 1015.8
20210624040904 54 161 2.0 5.0 0.00 0.02 0.01 91 1015.9
20210624040404 54 181 3.0 10.0 0.00 0.02 0.01 91 1015.9
20210624035904 54 161 2.0 10.0 0.00 0.02 0.01 91 1016.1
20210624035404 54 177 2.0 9.0 0.00 0.02 0.01 91 1016.0
20210624034904 54 184 2.0 7.0 0.00 0.02 0.01 91 1016.1
20210624034404 54 189 2.0 9.0 0.00 0.02 0.01 91 1016.1
20210624033904 54 196 1.0 7.0 0.00 0.02 0.01 91 1016.2
20210624033404 54 168 2.0 7.0 0.00 0.02 0.01 91 1016.3
20210624032904 54 168 2.0 7.0 0.00 0.02 0.01 91 1016.3
20210624032404 54 204 2.0 8.0 0.00 0.02 0.01 91 1016.2
20210624031904 54 242 3.0 7.0 0.00 0.02 0.01 91 1016.3
20210624031404 54 170 3.0 7.0 0.00 0.02 0.01 91 1016.4
20210624030905 54 349 3.0 9.0 0.00 0.02 0.01 91 1016.5
20210624030405 54 183 2.0 6.0 0.00 0.02 0.01 91 1016.4
20210624025904 54 177 1.0 5.0 0.00 0.02 0.01 91 1016.5
20210624025404 54 200 1.0 5.0 0.00 0.02 0.01 91 1016.5
20210624024904 54 212 1.0 6.0 0.00 0.02 0.01 91 1016.6
20210624024404 54 51 2.0 9.0 0.00 0.02 0.01 91 1016.6
20210624023904 54 140 2.0 8.0 0.00 0.02 0.01 91 1016.8
20210624023404 54 339 2.0 3.0 0.00 0.02 0.01 91 1016.9
20210624022905 54 175 2.0 6.0 0.00 0.02 0.01 91 1016.9
20210624022405 54 235 2.0 6.0 0.00 0.02 0.01 91 1017.0
20210624021904 55 183 2.0 8.0 0.00 0.02 0.01 91 1017.1
20210624021404 55 159 1.0 3.0 0.00 0.02 0.01 91 1017.2
20210624020905 55 169 1.0 5.0 0.00 0.02 0.01 91 1017.2
20210624020404 55 153 1.0 3.0 0.00 0.02 0.01 91 1017.2
20210624015904 55 148 2.0 5.0 0.00 0.02 0.01 91 1017.3
20210624015404 55 261 1.0 3.0 0.00 0.02 0.01 91 1017.4
20210624014904 55 244 0.0 3.0 0.00 0.02 0.01 91 1017.4
20210624014404 55 261 1.0 2.0 0.00 0.02 0.01 91 1017.5
20210624013905 55 161 1.0 3.0 0.00 0.02 0.01 91 1017.5
20210624013404 55 176 0.0 2.0 0.00 0.02 0.01 91 1017.5
20210624012904 55 229 1.0 3.0 0.00 0.02 0.01 91 1017.6
20210624012404 55 161 1.0 3.0 0.00 0.02 0.01 91 1017.7
20210624011905 55 176 2.0 5.0 0.00 0.02 0.01 91 1017.7
20210624011404 55 167 1.0 3.0 0.00 0.02 0.01 91 1017.8
20210624010904 55 176 2.0 6.0 0.01 0.02 0.01 91 1017.7
20210624010404 55 179 2.0 5.0 0.01 0.02 0.01 91 1017.9
20210624005904 55 167 1.0 3.0 0.00 0.02 0.01 91 1017.9
20210624005403 55 168 1.0 3.0 0.00 0.02 0.01 91 1017.9
20210624004904 55 177 2.0 3.0 0.00 0.02 0.01 91 1017.9
20210624004404 55 176 1.0 3.0 0.00 0.02 0.01 91 1018.0
20210624003904 55 173 1.0 3.0 0.00 0.02 0.01 91 1018.0
20210624003404 55 165 1.0 2.0 0.00 0.02 0.01 91 1018.0
20210624002904 55 180 1.0 5.0 0.00 0.02 0.01 91 1018.1
20210624002404 55 158 2.0 5.0 0.00 0.02 0.01 91 1018.2
20210624001904 55 191 1.0 2.0 0.00 0.02 0.01 91 1018.1
20210624001405 55 159 0.0 3.0 0.00 0.02 0.01 90 1018.2
20210624000904 55 149 0.0 3.0 0.00 0.01 0.00 90 1018.2
20210624000406 55 166 0.0 3.0 0.00 0.01 0.00 90 1018.3
20210623235904 56 167 1.0 3.0 0.00 0.01 0.01 90 1018.4
20210623235405 56 162 1.0 5.0 0.00 0.01 0.01 90 1018.4
20210623234904 56 201 0.0 3.0 0.00 0.01 0.01 90 1018.5
20210623234404 56 176 0.0 2.0 0.00 0.01 0.01 90 1018.7
20210623233904 56 181 1.0 2.0 0.00 0.01 0.01 90 1018.7
20210623233404 56 181 0.0 1.0 0.00 0.01 0.01 90 1018.7
20210623232905 56 179 0.0 1.0 0.00 0.01 0.01 90 1018.8
20210623232404 56 178 0.0 2.0 0.00 0.01 0.01 90 1018.8
20210623231904 56 178 0.0 2.0 0.00 0.01 0.01 90 1018.8
20210623231405 56 182 0.0 1.0 0.00 0.01 0.01 90 1018.7
20210623230904 56 183 0.0 1.0 0.00 0.01 0.01 90 1018.9
20210623230404 56 184 0.0 1.0 0.00 0.01 0.01 90 1018.9
20210623225904 56 182 0.0 3.0 0.00 0.01 0.01 90 1019.0
20210623225404 56 218 0.0 1.0 0.00 0.01 0.01 90 1019.0
20210623224905 56 280 0.0 1.0 0.00 0.01 0.01 90 1019.0
20210623224404 56 220 0.0 1.0 0.00 0.01 0.01 90 1019.1
20210623223904 56 225 0.0 1.0 0.00 0.01 0.01 90 1019.1
20210623223404 56 263 0.0 1.0 0.00 0.01 0.01 90 1019.1
20210623222905 56 278 0.0 2.0 0.00 0.01 0.01 90 1019.1
20210623222405 56 319 0.0 1.0 0.00 0.01 0.01 90 1019.1
20210623221904 56 273 0.0 1.0 0.00 0.01 0.01 90 1019.2
20210623221404 56 283 0.0 1.0 0.00 0.01 0.01 90 1019.2
20210623220904 56 293 1.0 2.0 0.00 0.01 0.01 90 1019.3
20210623220404 56 294 1.0 2.0 0.00 0.01 0.01 90 1019.3
20210623215904 56 294 1.0 2.0 0.00 0.01 0.01 90 1019.4
20210623215405 56 280 1.0 2.0 0.00 0.01 0.01 90 1019.3
20210623214904 56 281 0.0 2.0 0.00 0.01 0.01 90 1019.4
20210623214404 56 307 0.0 2.0 0.00 0.01 0.01 90 1019.3
20210623213904 56 272 0.0 1.0 0.00 0.01 0.01 90 1019.3
20210623213404 56 256 0.0 2.0 0.00 0.01 0.01 90 1019.3
20210623212905 56 283 0.0 2.0 0.00 0.01 0.01 90 1019.4
20210623212404 56 192 1.0 3.0 0.00 0.01 0.01 90 1019.4
20210623211904 57 316 0.0 2.0 0.00 0.01 0.01 90 1019.4
20210623211404 57 265 2.0 3.0 0.00 0.01 0.01 90 1019.4
20210623210904 57 299 1.0 3.0 0.00 0.01 0.01 90 1019.4
20210623210404 57 278 1.0 3.0 0.00 0.01 0.01 90 1019.4
20210623205904 57 296 1.0 2.0 0.00 0.01 0.01 90 1019.4
20210623205404 57 301 1.0 3.0 0.00 0.01 0.01 90 1019.5
20210623204904 57 341 1.0 2.0 0.00 0.01 0.01 90 1019.4
20210623204404 57 281 1.0 2.0 0.00 0.01 0.01 90 1019.4
20210623203904 57 351 0.0 3.0 0.00 0.01 0.01 90 1019.5
20210623203404 57 296 1.0 5.0 0.00 0.01 0.01 90 1019.4
20210623202905 57 271 0.0 3.0 0.00 0.01 0.01 90 1019.4
20210623202404 57 257 2.0 3.0 0.01 0.01 0.01 90 1019.3
20210623201904 57 330 1.0 3.0 0.01 0.01 0.01 90 1019.4
20210623201405 57 99 1.0 3.0 0.01 0.01 0.01 90 1019.3
20210623200904 57 338 1.0 3.0 0.01 0.01 0.01 90 1019.4
20210623200404 57 333 1.0 3.0 0.01 0.01 0.01 89 1019.3
20210623195905 57 292 1.0 3.0 0.01 0.01 0.01 89 1019.4
20210623195404 57 294 1.0 2.0 0.01 0.01 0.01 89 1019.4
20210623194904 57 325 1.0 3.0 0.01 0.01 0.01 89 1019.4
20210623194404 57 329 1.0 2.0 0.01 0.01 0.01 89 1019.4
20210623193904 57 277 1.0 3.0 0.01 0.01 0.01 89 1019.4
20210623193404 57 289 1.0 3.0 0.01 0.01 0.01 89 1019.4
20210623192904 58 306 1.0 3.0 0.01 0.01 0.01 89 1019.4
20210623192404 58 306 1.0 3.0 0.00 0.00 0.00 88 1019.4
20210623191904 58 285 1.0 3.0 0.00 0.00 0.00 88 1019.4
20210623191404 58 338 2.0 3.0 0.00 0.00 0.00 88 1019.4
20210623190904 58 61 1.0 3.0 0.00 0.00 0.00 88 1019.4
20210623190404 58 319 1.0 3.0 0.00 0.00 0.00 87 1019.4
20210623185904 58 262 1.0 3.0 0.00 0.00 0.00 87 1019.4
20210623185405 58 269 1.0 3.0 0.00 0.00 0.00 87 1019.4
20210623184904 58 286 1.0 3.0 0.00 0.00 0.00 87 1019.4
20210623184404 59 268 1.0 5.0 0.00 0.00 0.00 87 1019.4
20210623183904 59 274 1.0 3.0 0.00 0.00 0.00 87 1019.4
20210623183404 58 334 1.0 3.0 0.00 0.00 0.00 87 1019.4
20210623182904 58 269 0.0 2.0 0.00 0.00 0.00 87 1019.3
20210623182404 58 161 1.0 8.0 0.00 0.00 0.00 86 1019.4
20210623181904 58 172 2.0 5.0 0.00 0.00 0.00 86 1019.3
20210623181404 58 316 2.0 3.0 0.00 0.00 0.00 86 1019.4
20210623180905 58 171 1.0 3.0 0.00 0.00 0.00 86 1019.3
20210623180405 58 177 1.0 3.0 0.00 0.00 0.00 86 1019.3
20210623175904 58 240 1.0 6.0 0.00 0.00 0.00 86 1019.3
20210623175405 58 177 2.0 7.0 0.00 0.00 0.00 86 1019.3
20210623174904 59 8 2.0 3.0 0.00 0.00 0.00 86 1019.3
20210623174404 59 171 1.0 5.0 0.00 0.00 0.00 86 1019.4
20210623173904 59 186 1.0 3.0 0.00 0.00 0.00 86 1019.4
20210623173405 59 195 1.0 3.0 0.00 0.00 0.00 86 1019.5
20210623172904 59 149 1.0 3.0 0.00 0.00 0.00 86 1019.4
20210623172404 59 170 2.0 5.0 0.00 0.00 0.00 85 1019.5
20210623171904 59 186 1.0 3.0 0.00 0.00 0.00 85 1019.4
20210623171404 59 150 1.0 3.0 0.00 0.00 0.00 85 1019.4
20210623170904 59 183 3.0 6.0 0.00 0.00 0.00 85 1019.4
20210623170404 60 147 1.0 2.0 0.00 0.00 0.00 85 1019.3
20210623165904 60 171 1.0 5.0 0.00 0.00 0.00 85 1019.2
20210623165405 60 156 1.0 3.0 0.00 0.00 0.00 85 1019.3
20210623164904 60 156 1.0 3.0 0.00 0.00 0.00 84 1019.3
20210623164404 61 319 1.0 3.0 0.00 0.00 0.00 85 1019.3
20210623163904 61 303 0.0 1.0 0.00 0.00 0.00 85 1019.3
20210623163404 61 263 1.0 2.0 0.00 0.00 0.00 85 1019.3
20210623162904 61 279 0.0 2.0 0.00 0.00 0.00 84 1019.2
20210623162404 61 254 1.0 3.0 0.00 0.00 0.00 84 1019.2
20210623161904 61 249 0.0 2.0 0.00 0.00 0.00 84 1019.2
20210623161404 61 269 0.0 1.0 0.00 0.00 0.00 83 1019.3
20210623160904 61 270 1.0 2.0 0.00 0.00 0.00 83 1019.4
20210623160404 61 259 1.0 3.0 0.00 0.00 0.00 82 1019.4
20210623155904 61 269 2.0 3.0 0.00 0.00 0.00 82 1019.3
20210623155404 61 288 1.0 1.0 0.00 0.00 0.00 82 1019.3
20210623154904 61 270 1.0 3.0 0.00 0.00 0.00 81 1019.3
20210623154404 61 255 0.0 2.0 0.00 0.00 0.00 82 1019.3
20210623153904 61 262 1.0 3.0 0.00 0.00 0.00 82 1019.2
20210623153404 61 268 1.0 2.0 0.00 0.00 0.00 83 1019.3
20210623152904 61 267 1.0 2.0 0.00 0.00 0.00 83 1019.2
20210623152404 60 182 0.0 2.0 0.00 0.00 0.00 84 1019.2
20210623151904 60 199 1.0 3.0 0.00 0.00 0.00 84 1019.2
20210623151404 60 198 1.0 2.0 0.00 0.00 0.00 85 1019.2
20210623150904 59 289 1.0 2.0 0.00 0.00 0.00 86 1019.2
20210623150404 58 122 2.0 7.0 0.00 0.00 0.00 85 1019.2
20210623145904 58 151 2.0 3.0 0.00 0.00 0.00 85 1019.2
20210623145404 58 151 2.0 5.0 0.00 0.00 0.00 85 1019.2
20210623144904 58 158 2.0 5.0 0.00 0.00 0.00 84 1019.4
20210623144404 58 175 1.0 3.0 0.00 0.00 0.00 84 1019.4
20210623143904 58 171 2.0 5.0 0.00 0.00 0.00 83 1019.3
20210623143404 58 151 2.0 6.0 0.00 0.00 0.00 82 1019.3
20210623142904 59 163 2.0 5.0 0.00 0.00 0.00 81 1019.3
20210623142404 59 152 3.0 7.0 0.00 0.00 0.00 80 1019.4
20210623141904 61 168 4.0 9.0 0.00 0.00 0.00 78 1019.3
20210623141404 62 163 2.0 8.0 0.00 0.00 0.00 75 1019.3
20210623140904 64 280 2.0 7.0 0.00 0.00 0.00 75 1019.3
20210623140404 64 195 1.0 3.0 0.00 0.00 0.00 76 1019.3
20210623135904 64 307 1.0 2.0 0.00 0.00 0.00 77 1019.3
20210623135404 63 275 1.0 2.0 0.00 0.00 0.00 78 1019.2
20210623134904 63 284 0.0 2.0 0.00 0.00 0.00 79 1019.2
20210623134404 62 297 1.0 2.0 0.00 0.00 0.00 79 1019.2
20210623133904 61 276 1.0 3.0 0.00 0.00 0.00 80 1019.2
20210623133404 61 263 1.0 3.0 0.00 0.00 0.00 79 1019.3
20210623132904 61 254 1.0 5.0 0.00 0.00 0.00 79 1019.3
20210623132404 61 236 1.0 3.0 0.00 0.00 0.00 80 1019.3
20210623131904 61 276 1.0 3.0 0.00 0.00 0.00 79 1019.3
20210623131404 61 268 1.0 3.0 0.00 0.00 0.00 79 1019.3
20210623130904 61 271 1.0 6.0 0.00 0.00 0.00 79 1019.2
20210623130404 61 259 2.0 3.0 0.00 0.00 0.00 79 1019.2
20210623125904 61 247 1.0 3.0 0.00 0.00 0.00 79 1019.2
20210623125404 61 265 1.0 6.0 0.00 0.00 0.00 79 1019.2
20210623124904 61 272 1.0 3.0 0.00 0.00 0.00 79 1019.2
20210623124405 61 277 1.0 3.0 0.00 0.00 0.00 79 1019.3
20210623123905 61 261 0.0 3.0 0.00 0.00 0.00 79 1019.1
20210623123405 61 290 1.0 3.0 0.00 0.00 0.00 79 1019.2
20210623122904 61 260 1.0 3.0 0.00 0.00 0.00 79 1019.2
20210623122404 61 250 1.0 3.0 0.00 0.00 0.00 79 1019.3
20210623121904 61 255 2.0 3.0 0.00 0.00 0.00 79 1019.2
20210623121405 61 110 1.0 7.0 0.00 0.00 0.00 78 1019.3
20210623120904 61 266 1.0 3.0 0.00 0.00 0.00 79 1019.1
20210623120404 61 278 1.0 3.0 0.00 0.00 0.00 79 1019.1
20210623115904 61 269 1.0 3.0 0.00 0.00 0.00 79 1019.1
20210623115404 61 280 1.0 3.0 0.00 0.00 0.00 79 1019.0
20210623114904 61 276 1.0 3.0 0.00 0.00 0.00 79 1019.1
20210623114405 61 234 1.0 3.0 0.00 0.00 0.00 80 1019.0
20210623113904 61 265 1.0 3.0 0.00 0.00 0.00 80 1019.0
20210623113404 61 301 1.0 3.0 0.00 0.00 0.00 81 1019.0
20210623112904 60 254 1.0 6.0 0.00 0.00 0.00 81 1019.0
20210623112404 60 265 1.0 3.0 0.00 0.00 0.00 81 1019.0
20210623111904 60 217 1.0 3.0 0.00 0.00 0.00 81 1019.0
20210623111404 60 187 1.0 3.0 0.00 0.00 0.00 81 1019.0
20210623110904 60 266 1.0 3.0 0.00 0.00 0.00 81 1019.0
20210623110404 60 256 1.0 6.0 0.00 0.00 0.00 81 1019.0
20210623105904 60 272 1.0 3.0 0.00 0.00 0.00 80 1018.8
20210623105404 60 270 1.0 3.0 0.00 0.00 0.00 79 1018.8
20210623104904 60 287 1.0 5.0 0.00 0.00 0.00 80 1018.8
20210623104404 61 271 1.0 7.0 0.00 0.00 0.00 80 1018.6
20210623103904 61 257 1.0 3.0 0.00 0.00 0.00 80 1018.7
20210623103404 60 230 2.0 3.0 0.00 0.00 0.00 81 1018.7
20210623102904 60 269 1.0 3.0 0.00 0.00 0.00 81 1018.6
20210623102404 60 269 1.0 3.0 0.00 0.00 0.00 81 1018.8
20210623101905 59 275 1.0 3.0 0.00 0.00 0.00 81 1018.8
20210623101404 60 277 1.0 3.0 0.00 0.00 0.00 80 1018.8
20210623100904 60 258 2.0 5.0 0.00 0.00 0.00 80 1018.8
20210623100405 60 288 2.0 3.0 0.00 0.00 0.00 80 1018.8
20210623095904 60 286 1.0 3.0 0.00 0.00 0.00 81 1018.7
20210623095405 60 282 1.0 5.0 0.00 0.00 0.00 82 1018.6
20210623094904 60 264 1.0 7.0 0.00 0.00 0.00 82 1018.7
20210623094404 60 252 1.0 2.0 0.00 0.00 0.00 83 1018.6
20210623093904 60 293 2.0 7.0 0.00 0.00 0.00 83 1018.7
20210623093404 59 263 1.0 3.0 0.00 0.00 0.00 83 1018.7
20210623092904 59 269 1.0 3.0 0.00 0.00 0.00 84 1018.7
20210623092404 59 252 1.0 3.0 0.00 0.00 0.00 83 1018.6
20210623091904 59 278 1.0 3.0 0.00 0.00 0.00 84 1018.7
20210623091405 59 277 0.0 1.0 0.00 0.00 0.00 84 1018.6
20210623090904 59 281 1.0 3.0 0.00 0.00 0.00 84 1018.5
20210623090405 59 290 1.0 2.0 0.00 0.00 0.00 85 1018.4
20210623085904 58 235 0.0 2.0 0.00 0.00 0.00 85 1018.5
20210623085404 58 269 0.0 2.0 0.00 0.00 0.00 85 1018.5
20210623084904 58 255 1.0 2.0 0.00 0.00 0.00 85 1018.3
20210623084404 58 290 2.0 3.0 0.00 0.00 0.00 85 1018.4
20210623083906 58 263 1.0 2.0 0.00 0.00 0.00 85 1018.2
20210623083404 58 275 1.0 2.0 0.00 0.00 0.00 85 1018.3
20210623082904 58 247 1.0 3.0 0.00 0.00 0.00 85 1018.2
20210623082404 58 283 1.0 3.0 0.00 0.00 0.00 86 1018.3
20210623081904 58 271 1.0 6.0 0.00 0.00 0.00 86 1018.3
20210623081404 57 257 2.0 3.0 0.00 0.00 0.00 86 1018.4
20210623080904 57 270 1.0 5.0 0.00 0.00 0.00 86 1018.4
20210623080405 57 257 0.0 2.0 0.00 0.00 0.00 87 1018.4
20210623075904 57 233 1.0 3.0 0.00 0.00 0.00 87 1018.3
20210623075404 57 237 1.0 2.0 0.00 0.00 0.00 87 1018.2
20210623074904 56 283 1.0 5.0 0.00 0.00 0.00 87 1018.3
20210623074404 56 277 1.0 3.0 0.00 0.00 0.00 87 1018.3
20210623073904 56 285 1.0 6.0 0.00 0.00 0.00 87 1018.2
20210623073404 56 279 2.0 6.0 0.00 0.00 0.00 87 1018.2
20210623072904 56 264 1.0 3.0 0.00 0.00 0.00 87 1018.2
20210623072404 56 293 2.0 3.0 0.00 0.00 0.00 87 1018.2
20210623071905 56 329 1.0 3.0 0.00 0.00 0.00 88 1018.1
20210623071404 56 265 1.0 3.0 0.00 0.00 0.00 88 1018.2
20210623070904 56 270 1.0 3.0 0.00 0.00 0.00 88 1018.1
20210623070404 56 254 1.0 3.0 0.00 0.00 0.00 88 1018.2
20210623065904 56 310 1.0 3.0 0.00 0.00 0.00 89 1018.2
20210623065404 56 274 2.0 5.0 0.00 0.00 0.00 89 1018.1
20210623064904 56 299 1.0 3.0 0.00 0.00 0.00 89 1018.0
20210623064405 55 246 1.0 3.0 0.00 0.00 0.00 89 1017.9
20210623063904 55 275 1.0 6.0 0.00 0.00 0.00 89 1017.9
20210623063405 55 225 1.0 3.0 0.00 0.00 0.00 89 1017.9
20210623062904 55 265 2.0 6.0 0.00 0.00 0.00 90 1017.9
20210623062404 55 264 1.0 3.0 0.00 0.00 0.00 90 1017.8
20210623061904 55 305 1.0 3.0 0.00 0.00 0.00 90 1017.7